To NAV CANADA Home Page Login to a new session Search on AWWS site Feedback and Comments Disclaimer Vers la page française équivalente Tips FAQ What's new on the site To the Forecasts and Observations / NOTAM section To "File a Flight Plan" website Publications and other links Update of the User's profile FIC Telephone Numbers My Weather Data Folder Route Weather Data Regional Weather Data Local Weather Data To the Forecasts and Observations / NOTAM section
Request Generated 05/25/2017 at 01:13:45 UTC . Weather information available at that time is displayed.

METAR/TAF

YARMOUTH/NS    

METAR CYQI 250100Z 19004KT 15SM FEW021 BKN130 10/09 A2987 RMK SC1AC5
SC TR SLP116=
METAR CYQI 250000Z 17004KT 15SM FEW020 BKN130 11/09 A2987 RMK SC1AC6
SC TR SLP118=
METAR CYQI 242300Z 29003KT 15SM FEW020 BKN160 11/09 A2986 RMK SC1AC7
SC TR SLP115=

TAF CYQI 242339Z 2500/2512 VRB03KT P6SM FEW020 BKN160 TEMPO 2500/2503
FEW003 BKN020 PROB30 2500/2503 3SM BR OVC003
FM250300 VRB03KT 2SM BR BKN003 TEMPO 2503/2506 P6SM NSW FEW003
OVC020 PROB30 2503/2506 1/2SM FG VV002
FM250600 VRB03KT 2SM BR BKN003 PROB40 2506/2509 1/2SM FG BKN002
FM250900 09010KT P6SM FEW002 TEMPO 2509/2512 3SM BR BKN002 PROB30
2509/2512 1/2SM FG VV002
RMK NXT FCST BY 250600Z=
Your time UTC time
Weather data provided by Environment Canada and NAV CANADA